Time;durP1;ratioP1;P1;durP2;ratioP2;P2;SDS_P1;SDS_P2;PMS_P1;PMS_P2;Temp;Humidity;BMP_temperature;BMP_pressure;BME280_temperature;BME280_humidity;BME280_pressure;Samples;Min_cycle;Max_cycle;Signal;HPM_P1;HPM_P2
2021/08/05 00:00:32;;;;;;;6.85;3.35;;;;;;;;;;5076891;28;20124;-82
2021/08/05 00:48:34;;;;;;;6.50;3.60;;;;;;;;;;4758190;30;20062;-82
2021/08/05 01:07:09;;;;;;;5.05;2.80;;;;;;;;;;5015960;28;20132;-83
2021/08/05 01:10:01;;;;;;;40.70;23.88;;;;;;;;;;5076392;28;20127;-82
2021/08/05 01:13:16;;;;;;;23.33;11.75;;;;;;;;;;5079053;28;20045;-83
2021/08/05 01:16:10;;;;;;;8.48;3.80;;;;;;;;;;5069947;28;20052;-82
2021/08/05 01:18:49;;;;;;;7.50;3.28;;;;;;;;;;5073540;28;20052;-82
2021/08/05 01:21:40;;;;;;;5.35;2.38;;;;;;;;;;5080234;28;20044;-82
2021/08/05 01:24:16;;;;;;;5.65;2.75;;;;;;;;;;5082369;28;20044;-82
2021/08/05 01:27:09;;;;;;;4.57;2.30;;;;;;;;;;5086220;28;20048;-82
2021/08/05 01:30:02;;;;;;;6.03;2.40;;;;;;;;;;5086020;28;20098;-82
2021/08/05 01:32:51;;;;;;;4.05;1.52;;;;;;;;;;5089156;28;20048;-83
2021/08/05 01:38:30;;;;;;;4.10;2.30;;;;;;;;;;5065845;28;20106;-84
2021/08/05 01:44:12;;;;;;;3.83;1.92;;;;;;;;;;5041160;28;20154;-82
2021/08/05 01:47:05;;;;;;;4.47;2.20;;;;;;;;;;5081531;28;20451;-82
2021/08/05 01:49:51;;;;;;;2.63;1.35;;;;;;;;;;5081503;28;20494;-83
2021/08/05 01:52:42;;;;;;;4.53;1.20;;;;;;;;;;5078372;28;20072;-83
2021/08/05 02:02:02;;;;;;;1.73;0.70;;;;;;;;;;4989576;28;20058;-83
2021/08/05 02:04:59;;;;;;;2.78;0.80;;;;;;;;;;4996539;28;20058;-83
2021/08/05 02:07:30;;;;;;;1.80;1.08;;;;;;;;;;5051876;22;20398;-81
2021/08/05 02:10:01;;;;;;;1.73;0.88;;;;;;;;;;5056995;28;20052;-81
2021/08/05 02:12:32;;;;;;;1.83;0.98;;;;;;;;;;5065478;28;20068;-80
2021/08/05 02:15:02;;;;;;;1.83;0.90;;;;;;;;;;5080845;28;20102;-80
2021/08/05 02:17:33;;;;;;;2.05;1.02;;;;;;;;;;5097338;28;20059;-79
2021/08/05 02:20:00;;;;;;;2.60;1.23;;;;;;;;;;5099734;28;20036;-80
2021/08/05 02:22:27;;;;;;;3.58;1.30;;;;;;;;;;5099743;28;20033;-80
2021/08/05 02:24:55;;;;;;;3.22;1.48;;;;;;;;;;5098902;28;20056;-79
2021/08/05 02:27:24;;;;;;;2.92;1.58;;;;;;;;;;5094237;28;20052;-80
2021/08/05 02:29:51;;;;;;;3.05;1.30;;;;;;;;;;5080055;28;20044;-81
2021/08/05 02:32:18;;;;;;;4.60;1.55;;;;;;;;;;5077485;28;20097;-80
2021/08/05 02:34:48;;;;;;;3.00;1.20;;;;;;;;;;5076624;28;20049;-80
2021/08/05 02:37:17;;;;;;;4.30;2.10;;;;;;;;;;5076580;28;20117;-81
2021/08/05 02:39:44;;;;;;;3.95;2.05;;;;;;;;;;5076409;28;20045;-80
2021/08/05 02:42:12;;;;;;;5.07;2.35;;;;;;;;;;5076661;28;20122;-80
2021/08/05 02:44:40;;;;;;;3.85;1.52;;;;;;;;;;5076162;28;20094;-82
2021/08/05 02:47:07;;;;;;;3.25;1.48;;;;;;;;;;5075874;28;20048;-81
2021/08/05 02:49:35;;;;;;;2.10;1.17;;;;;;;;;;5075612;28;20048;-81
2021/08/05 02:52:04;;;;;;;2.47;1.10;;;;;;;;;;5077699;28;20041;-81
2021/08/05 02:54:30;;;;;;;2.70;1.23;;;;;;;;;;5075711;28;20048;-81
2021/08/05 02:56:58;;;;;;;2.85;1.35;;;;;;;;;;5075064;28;20382;-81
2021/08/05 02:59:27;;;;;;;2.53;1.13;;;;;;;;;;5075211;28;20056;-81
2021/08/05 03:01:55;;;;;;;2.67;1.10;;;;;;;;;;5065427;28;20053;-81
2021/08/05 03:04:21;;;;;;;2.33;1.08;;;;;;;;;;5056022;28;20056;-81
2021/08/05 03:06:48;;;;;;;2.13;1.10;;;;;;;;;;5055924;28;20045;-81
2021/08/05 03:09:16;;;;;;;3.00;1.40;;;;;;;;;;5055917;28;20110;-81
2021/08/05 03:11:43;;;;;;;3.85;1.40;;;;;;;;;;5055810;28;20110;-81
2021/08/05 03:14:10;;;;;;;3.08;1.55;;;;;;;;;;5055345;28;20049;-81
2021/08/05 03:16:37;;;;;;;3.05;1.30;;;;;;;;;;5054729;28;20064;-81
2021/08/05 03:19:03;;;;;;;3.03;1.50;;;;;;;;;;5056599;28;20111;-81
2021/08/05 03:21:30;;;;;;;3.33;1.60;;;;;;;;;;5055512;28;20049;-81
2021/08/05 03:23:57;;;;;;;4.85;2.03;;;;;;;;;;5055401;28;20056;-81
2021/08/05 03:26:25;;;;;;;4.03;2.15;;;;;;;;;;5055855;28;20098;-81
2021/08/05 03:28:52;;;;;;;5.07;2.33;;;;;;;;;;5062207;28;20071;-80
2021/08/05 03:31:19;;;;;;;4.60;2.40;;;;;;;;;;5070548;28;20118;-82
2021/08/05 03:33:45;;;;;;;4.25;2.30;;;;;;;;;;5070393;28;20045;-81
2021/08/05 03:36:12;;;;;;;5.18;2.67;;;;;;;;;;5069658;28;20044;-81
2021/08/05 03:38:39;;;;;;;6.53;3.30;;;;;;;;;;5070358;28;20075;-80
2021/08/05 03:41:06;;;;;;;5.93;2.95;;;;;;;;;;5070008;28;20049;-81
2021/08/05 03:43:34;;;;;;;6.43;3.63;;;;;;;;;;5070019;28;20088;-80
2021/08/05 03:46:01;;;;;;;6.53;3.40;;;;;;;;;;5067496;28;20103;-82
2021/08/05 03:48:28;;;;;;;5.78;3.03;;;;;;;;;;5057365;28;20049;-81
2021/08/05 03:50:55;;;;;;;6.28;3.55;;;;;;;;;;5056082;28;20049;-81
2021/08/05 03:53:22;;;;;;;7.18;3.60;;;;;;;;;;5059611;28;20049;-81
2021/08/05 03:55:48;;;;;;;6.32;3.55;;;;;;;;;;5056786;28;20045;-82
2021/08/05 03:58:15;;;;;;;7.10;3.83;;;;;;;;;;5055892;28;20547;-81
2021/08/05 04:00:44;;;;;;;9.20;4.60;;;;;;;;;;5056215;28;20111;-81
2021/08/05 04:03:10;;;;;;;6.68;4.07;;;;;;;;;;5056193;28;20099;-81
2021/08/05 04:05:37;;;;;;;7.70;4.60;;;;;;;;;;5055424;28;20053;-81
2021/08/05 04:08:04;;;;;;;9.90;5.05;;;;;;;;;;5055646;28;20053;-81
2021/08/05 04:10:31;;;;;;;9.05;5.30;;;;;;;;;;5055817;28;20049;-81
2021/08/05 04:12:57;;;;;;;8.77;4.78;;;;;;;;;;5067967;28;20167;-81
2021/08/05 04:15:24;;;;;;;8.52;4.63;;;;;;;;;;5074206;28;20056;-81
2021/08/05 04:17:52;;;;;;;9.35;4.57;;;;;;;;;;5074888;28;20127;-81
2021/08/05 04:20:21;;;;;;;8.73;5.47;;;;;;;;;;5074920;28;20481;-81
2021/08/05 04:22:48;;;;;;;9.02;5.10;;;;;;;;;;5075338;28;20040;-81
2021/08/05 04:25:15;;;;;;;7.88;4.68;;;;;;;;;;5074363;28;20128;-81
2021/08/05 04:27:42;;;;;;;7.97;4.90;;;;;;;;;;5074983;28;20699;-81
2021/08/05 04:30:11;;;;;;;8.45;5.03;;;;;;;;;;5075494;28;20131;-82
2021/08/05 04:32:38;;;;;;;7.50;4.80;;;;;;;;;;5074940;28;20045;-81
2021/08/05 04:35:08;;;;;;;8.75;4.72;;;;;;;;;;5074055;28;20135;-81
2021/08/05 04:37:34;;;;;;;8.65;4.80;;;;;;;;;;5074530;28;20045;-81
2021/08/05 04:40:01;;;;;;;9.25;5.10;;;;;;;;;;5074935;28;20044;-82
2021/08/05 04:42:28;;;;;;;7.63;4.55;;;;;;;;;;5074929;28;20651;-81
2021/08/05 04:44:55;;;;;;;8.45;4.72;;;;;;;;;;5073545;28;20095;-81
2021/08/05 04:47:21;;;;;;;8.48;5.00;;;;;;;;;;5074186;28;20053;-81
2021/08/05 04:49:48;;;;;;;8.93;4.88;;;;;;;;;;5074909;28;20327;-81
2021/08/05 04:52:16;;;;;;;8.63;4.45;;;;;;;;;;5074458;28;20052;-81
2021/08/05 04:54:43;;;;;;;7.43;4.32;;;;;;;;;;5074289;28;20052;-82
2021/08/05 04:57:10;;;;;;;8.27;4.43;;;;;;;;;;5074647;28;20053;-81
2021/08/05 04:59:37;;;;;;;8.23;4.30;;;;;;;;;;5074267;28;20060;-81
2021/08/05 05:02:04;;;;;;;7.07;4.18;;;;;;;;;;5074446;28;20048;-81
2021/08/05 05:04:31;;;;;;;6.70;4.15;;;;;;;;;;5075010;28;20063;-81
2021/08/05 05:06:58;;;;;;;6.28;3.60;;;;;;;;;;5077923;28;20501;-81
2021/08/05 05:09:26;;;;;;;8.15;4.50;;;;;;;;;;5080198;28;20123;-81
2021/08/05 05:11:53;;;;;;;7.47;4.03;;;;;;;;;;5079850;28;20082;-81
2021/08/05 05:14:20;;;;;;;6.50;3.60;;;;;;;;;;5077815;28;20094;-81
2021/08/05 05:16:47;;;;;;;7.10;3.80;;;;;;;;;;5077148;28;20047;-81
2021/08/05 05:19:14;;;;;;;7.15;3.58;;;;;;;;;;5077379;28;20094;-81
2021/08/05 05:21:41;;;;;;;5.68;3.70;;;;;;;;;;5076818;28;20382;-81
2021/08/05 05:24:07;;;;;;;5.47;2.95;;;;;;;;;;5077925;28;20053;-81
2021/08/05 05:26:36;;;;;;;7.72;3.72;;;;;;;;;;5076762;28;20507;-81
2021/08/05 05:29:02;;;;;;;6.43;3.72;;;;;;;;;;5078348;28;20048;-81
2021/08/05 05:31:29;;;;;;;6.97;3.70;;;;;;;;;;5077875;28;20075;-81
2021/08/05 05:33:56;;;;;;;5.82;3.15;;;;;;;;;;5080522;28;20052;-81
2021/08/05 05:36:23;;;;;;;7.03;3.33;;;;;;;;;;5080426;28;20060;-82
2021/08/05 05:38:49;;;;;;;6.15;3.25;;;;;;;;;;5078392;28;20512;-82
2021/08/05 05:41:16;;;;;;;6.75;3.47;;;;;;;;;;5078493;28;20052;-82
2021/08/05 05:43:44;;;;;;;5.00;2.92;;;;;;;;;;5079304;28;20044;-81
2021/08/05 05:46:11;;;;;;;5.75;2.92;;;;;;;;;;5081054;28;20052;-81
2021/08/05 05:48:38;;;;;;;6.60;3.15;;;;;;;;;;5079269;28;20387;-81
2021/08/05 05:51:05;;;;;;;7.53;3.83;;;;;;;;;;5079683;28;20060;-81
2021/08/05 05:53:32;;;;;;;5.45;3.15;;;;;;;;;;5078114;28;20048;-81
2021/08/05 05:55:59;;;;;;;5.85;3.08;;;;;;;;;;5077000;28;20071;-81
2021/08/05 05:58:26;;;;;;;6.30;3.15;;;;;;;;;;5077561;28;20045;-81
2021/08/05 06:00:54;;;;;;;5.20;3.15;;;;;;;;;;5077191;28;20504;-81
2021/08/05 06:03:21;;;;;;;5.75;2.95;;;;;;;;;;5077215;28;20051;-81
2021/08/05 06:05:47;;;;;;;7.13;3.22;;;;;;;;;;5078068;28;20524;-82
2021/08/05 06:08:14;;;;;;;5.78;3.08;;;;;;;;;;5081268;28;20044;-81
2021/08/05 06:10:41;;;;;;;7.38;3.63;;;;;;;;;;5078197;28;20124;-82
2021/08/05 06:13:08;;;;;;;5.13;2.63;;;;;;;;;;5064535;28;20053;-81
2021/08/05 06:15:35;;;;;;;4.47;2.58;;;;;;;;;;5057501;28;20059;-82
2021/08/05 06:18:04;;;;;;;7.05;3.10;;;;;;;;;;5058599;28;20045;-82
2021/08/05 06:20:31;;;;;;;5.53;2.88;;;;;;;;;;5066893;28;20049;-81
2021/08/05 06:22:58;;;;;;;6.38;3.20;;;;;;;;;;5074812;28;20053;-81
2021/08/05 06:25:25;;;;;;;8.45;3.97;;;;;;;;;;5073610;28;20076;-81
2021/08/05 06:27:52;;;;;;;8.25;3.03;;;;;;;;;;5075874;28;20041;-80
2021/08/05 06:30:19;;;;;;;5.93;3.03;;;;;;;;;;5075311;28;20048;-81
2021/08/05 06:32:46;;;;;;;6.30;3.13;;;;;;;;;;5074670;28;20060;-81
2021/08/05 06:35:14;;;;;;;6.32;3.13;;;;;;;;;;5069982;28;20106;-81
2021/08/05 06:37:41;;;;;;;5.05;2.90;;;;;;;;;;5063504;28;20057;-82
2021/08/05 06:40:08;;;;;;;7.28;3.13;;;;;;;;;;5062359;28;20079;-81
2021/08/05 06:42:36;;;;;;;5.50;2.70;;;;;;;;;;5061014;28;20053;-82
2021/08/05 06:45:04;;;;;;;6.07;3.45;;;;;;;;;;5059715;28;20142;-81
2021/08/05 06:47:31;;;;;;;10.45;7.03;;;;;;;;;;5061545;28;20072;-81
2021/08/05 06:49:58;;;;;;;5.15;3.10;;;;;;;;;;5062402;28;20076;-82
2021/08/05 06:52:27;;;;;;;4.70;2.78;;;;;;;;;;5061806;28;20118;-81
2021/08/05 06:54:53;;;;;;;5.85;3.03;;;;;;;;;;5062917;28;20056;-82
2021/08/05 06:57:20;;;;;;;6.88;3.05;;;;;;;;;;5061382;28;20057;-82
2021/08/05 06:59:47;;;;;;;6.68;2.95;;;;;;;;;;5061633;28;20053;-82
2021/08/05 07:02:14;;;;;;;5.95;3.05;;;;;;;;;;5061604;28;20505;-82
2021/08/05 07:04:41;;;;;;;8.80;3.80;;;;;;;;;;5060771;28;20567;-82
2021/08/05 07:07:08;;;;;;;6.38;3.22;;;;;;;;;;5061718;28;20056;-82
2021/08/05 07:09:36;;;;;;;6.60;3.53;;;;;;;;;;5061633;28;20045;-82
2021/08/05 07:12:03;;;;;;;7.28;3.40;;;;;;;;;;5066135;28;20060;-82
2021/08/05 07:14:30;;;;;;;5.55;3.28;;;;;;;;;;5094287;28;20045;-80
2021/08/05 07:16:57;;;;;;;5.63;3.00;;;;;;;;;;5087771;28;20056;-82
2021/08/05 07:19:25;;;;;;;5.80;2.80;;;;;;;;;;5079320;28;20041;-81
2021/08/05 07:21:52;;;;;;;5.75;3.28;;;;;;;;;;5079207;28;20045;-82
2021/08/05 07:24:19;;;;;;;6.80;3.47;;;;;;;;;;5080217;28;20041;-82
2021/08/05 07:26:47;;;;;;;6.50;3.00;;;;;;;;;;5078447;28;20052;-82
2021/08/05 07:29:14;;;;;;;5.82;3.13;;;;;;;;;;5081809;28;20112;-81
2021/08/05 07:31:41;;;;;;;7.25;3.83;;;;;;;;;;5096931;28;20066;-81
2021/08/05 07:34:08;;;;;;;6.93;4.18;;;;;;;;;;5097941;28;20051;-82
2021/08/05 07:36:35;;;;;;;6.97;3.83;;;;;;;;;;5097347;28;20028;-82
2021/08/05 07:39:01;;;;;;;7.85;3.28;;;;;;;;;;5097780;28;20040;-82
2021/08/05 07:41:28;;;;;;;8.05;3.72;;;;;;;;;;5097714;28;20092;-81
2021/08/05 07:43:57;;;;;;;8.32;4.72;;;;;;;;;;5085237;28;20049;-81
2021/08/05 07:46:24;;;;;;;7.13;3.60;;;;;;;;;;5084042;28;20040;-81
2021/08/05 07:48:51;;;;;;;6.75;3.30;;;;;;;;;;5085373;28;20082;-81
2021/08/05 07:51:18;;;;;;;6.28;3.65;;;;;;;;;;5084263;28;20532;-81
2021/08/05 07:53:45;;;;;;;10.38;3.97;;;;;;;;;;5083749;28;20104;-81
2021/08/05 07:56:12;;;;;;;7.50;3.83;;;;;;;;;;5084421;28;20055;-81
2021/08/05 07:58:39;;;;;;;10.32;3.70;;;;;;;;;;5085185;28;20055;-81
2021/08/05 08:01:07;;;;;;;7.50;4.70;;;;;;;;;;5081682;28;20460;-81
2021/08/05 08:03:34;;;;;;;10.02;4.75;;;;;;;;;;5064667;28;20053;-81
2021/08/05 08:06:01;;;;;;;8.43;4.70;;;;;;;;;;5064435;28;20045;-81
2021/08/05 08:08:28;;;;;;;11.95;5.88;;;;;;;;;;5067436;22;20045;-84
2021/08/05 08:10:55;;;;;;;7.72;4.32;;;;;;;;;;5058131;28;20041;-83
2021/08/05 08:13:22;;;;;;;10.93;6.57;;;;;;;;;;5061181;28;20049;-84
2021/08/05 08:15:48;;;;;;;9.32;5.55;;;;;;;;;;5059839;28;20132;-85
2021/08/05 08:18:17;;;;;;;9.95;5.20;;;;;;;;;;5058573;28;20128;-84
2021/08/05 08:20:44;;;;;;;10.38;5.18;;;;;;;;;;5060924;28;20059;-85
2021/08/05 08:23:11;;;;;;;8.60;4.80;;;;;;;;;;5058089;28;20052;-84
2021/08/05 08:25:38;;;;;;;9.23;5.90;;;;;;;;;;5058260;28;20049;-86
2021/08/05 08:28:05;;;;;;;10.57;5.75;;;;;;;;;;5064623;28;20045;-85
2021/08/05 08:30:32;;;;;;;8.43;5.22;;;;;;;;;;5058388;28;20045;-85
2021/08/05 08:32:59;;;;;;;7.70;5.00;;;;;;;;;;5058307;28;20044;-85
2021/08/05 08:35:27;;;;;;;9.27;5.65;;;;;;;;;;5057684;28;20048;-85
2021/08/05 08:37:54;;;;;;;9.20;5.85;;;;;;;;;;5058523;28;20049;-84
2021/08/05 08:40:22;;;;;;;13.45;7.63;;;;;;;;;;5060960;28;20060;-83
2021/08/05 08:42:49;;;;;;;13.98;8.95;;;;;;;;;;5066710;28;20132;-84
2021/08/05 08:45:17;;;;;;;11.15;7.40;;;;;;;;;;5060965;28;20056;-85
2021/08/05 08:47:49;;;;;;;10.00;6.30;;;;;;;;;;5061417;28;20056;-85
2021/08/05 08:50:16;;;;;;;11.20;6.47;;;;;;;;;;5061056;28;20041;-85
2021/08/05 08:52:46;;;;;;;8.60;5.65;;;;;;;;;;5061373;28;20060;-85
2021/08/05 08:55:14;;;;;;;9.88;6.13;;;;;;;;;;5060939;28;20192;-86
2021/08/05 08:57:41;;;;;;;9.65;6.43;;;;;;;;;;5061865;28;20052;-85
2021/08/05 09:00:09;;;;;;;9.30;5.93;;;;;;;;;;5060809;28;20048;-85
2021/08/05 09:02:36;;;;;;;8.88;5.63;;;;;;;;;;5061519;28;20059;-85
2021/08/05 09:05:05;;;;;;;11.27;5.93;;;;;;;;;;5060057;28;20080;-85
2021/08/05 09:07:33;;;;;;;9.40;5.88;;;;;;;;;;5060142;28;20135;-84
2021/08/05 09:10:02;;;;;;;9.60;5.75;;;;;;;;;;5060703;28;20041;-84
2021/08/05 09:12:28;;;;;;;10.43;6.57;;;;;;;;;;5059814;28;20045;-85
2021/08/05 09:14:55;;;;;;;11.90;6.10;;;;;;;;;;5079638;28;20581;-85
2021/08/05 09:17:25;;;;;;;9.85;5.82;;;;;;;;;;5068466;28;20056;-85
2021/08/05 09:19:55;;;;;;;9.13;5.95;;;;;;;;;;5060288;28;20106;-85
2021/08/05 09:22:35;;;;;;;8.75;4.80;;;;;;;;;;5060508;28;20041;-85
2021/08/05 09:25:26;;;;;;;10.13;6.25;;;;;;;;;;5059362;28;20056;-85
2021/08/05 09:27:55;;;;;;;8.75;5.60;;;;;;;;;;5059737;28;20045;-84
2021/08/05 09:30:30;;;;;;;9.95;5.50;;;;;;;;;;5059717;28;20064;-85
2021/08/05 09:33:02;;;;;;;8.10;5.30;;;;;;;;;;5060635;28;20387;-84
2021/08/05 09:35:30;;;;;;;10.20;7.00;;;;;;;;;;5062316;28;20045;-86
2021/08/05 09:38:15;;;;;;;9.70;5.18;;;;;;;;;;5060426;28;20072;-84
2021/08/05 09:40:43;;;;;;;8.88;5.60;;;;;;;;;;5060961;28;20083;-85
2021/08/05 09:43:10;;;;;;;7.57;5.38;;;;;;;;;;5064832;28;20060;-86
2021/08/05 09:45:39;;;;;;;8.80;5.68;;;;;;;;;;5078705;28;20048;-86
2021/08/05 09:48:07;;;;;;;9.75;5.47;;;;;;;;;;5079577;28;20080;-87
2021/08/05 09:50:34;;;;;;;8.35;5.60;;;;;;;;;;5070844;28;20382;-83
2021/08/05 09:53:08;;;;;;;8.70;5.75;;;;;;;;;;5061112;28;20448;-84
2021/08/05 09:55:36;;;;;;;9.10;5.97;;;;;;;;;;5057243;28;20456;-84
2021/08/05 09:58:05;;;;;;;8.40;6.03;;;;;;;;;;5058924;28;20045;-85
2021/08/05 10:00:42;;;;;;;8.55;5.05;;;;;;;;;;5059641;28;20048;-85
2021/08/05 10:03:09;;;;;;;9.70;7.25;;;;;;;;;;5040257;28;20049;-86
2021/08/05 10:05:37;;;;;;;9.45;5.90;;;;;;;;;;5039145;28;20052;-84
2021/08/05 10:08:04;;;;;;;7.03;4.93;;;;;;;;;;5039649;28;20053;-85
2021/08/05 10:10:50;;;;;;;9.98;5.72;;;;;;;;;;5040555;28;20072;-86
2021/08/05 10:13:28;;;;;;;6.32;4.10;;;;;;;;;;5057240;28;20045;-84
2021/08/05 10:15:57;;;;;;;8.77;5.18;;;;;;;;;;5061022;28;20071;-85
2021/08/05 10:18:29;;;;;;;6.18;4.22;;;;;;;;;;5060702;28;20056;-85
2021/08/05 10:21:01;;;;;;;7.28;4.63;;;;;;;;;;5062291;28;20048;-85
2021/08/05 10:23:29;;;;;;;7.63;4.85;;;;;;;;;;5064826;28;20059;-84
2021/08/05 10:25:58;;;;;;;9.95;6.07;;;;;;;;;;5067845;28;20048;-85
2021/08/05 10:28:26;;;;;;;7.88;5.85;;;;;;;;;;5076698;28;20045;-85
2021/08/05 10:30:56;;;;;;;10.20;7.22;;;;;;;;;;5068177;28;20049;-86
2021/08/05 10:33:24;;;;;;;6.95;4.32;;;;;;;;;;5062273;28;20045;-84
2021/08/05 10:35:52;;;;;;;8.18;4.15;;;;;;;;;;5059927;28;20041;-86
2021/08/05 10:38:20;;;;;;;6.22;4.68;;;;;;;;;;5059496;28;20067;-84
2021/08/05 10:40:49;;;;;;;6.80;4.43;;;;;;;;;;5059314;28;20048;-85
2021/08/05 10:43:16;;;;;;;8.68;4.10;;;;;;;;;;5061211;28;20103;-84
2021/08/05 10:45:43;;;;;;;7.20;5.07;;;;;;;;;;5060410;28;20041;-84
2021/08/05 10:48:12;;;;;;;6.75;4.25;;;;;;;;;;5058938;28;20068;-84
2021/08/05 10:50:44;;;;;;;7.10;4.60;;;;;;;;;;5059640;28;20049;-85
2021/08/05 10:53:31;;;;;;;6.40;4.40;;;;;;;;;;5059693;28;20057;-86
2021/08/05 10:56:18;;;;;;;7.93;5.18;;;;;;;;;;5060258;28;20378;-84
2021/08/05 10:59:03;;;;;;;8.40;4.15;;;;;;;;;;5059699;28;20055;-84
2021/08/05 11:01:45;;;;;;;8.32;6.40;;;;;;;;;;5062777;28;20509;-84
2021/08/05 11:04:50;;;;;;;9.25;5.28;;;;;;;;;;5074539;28;20053;-85
2021/08/05 11:07:32;;;;;;;8.07;4.30;;;;;;;;;;5075880;28;20049;-86
2021/08/05 11:10:25;;;;;;;7.28;4.00;;;;;;;;;;5075839;28;20040;-84
2021/08/05 11:12:56;;;;;;;7.75;4.03;;;;;;;;;;5074114;28;20039;-81
2021/08/05 11:15:45;;;;;;;9.77;6.65;;;;;;;;;;5074488;28;20118;-81
2021/08/05 11:18:19;;;;;;;7.85;5.47;;;;;;;;;;5071568;28;20128;-81
2021/08/05 11:20:47;;;;;;;8.65;6.00;;;;;;;;;;5065193;28;20486;-81
2021/08/05 11:23:39;;;;;;;8.32;4.85;;;;;;;;;;5066682;28;20057;-81
2021/08/05 11:26:08;;;;;;;6.38;4.35;;;;;;;;;;5065323;28;20098;-81
2021/08/05 11:28:45;;;;;;;6.78;4.03;;;;;;;;;;5068195;28;20104;-82
2021/08/05 11:31:25;;;;;;;6.10;4.45;;;;;;;;;;5066710;28;20045;-82
2021/08/05 11:33:53;;;;;;;7.50;4.18;;;;;;;;;;5067569;28;20049;-82
2021/08/05 11:36:24;;;;;;;6.97;4.45;;;;;;;;;;5065266;28;20051;-82
2021/08/05 11:39:03;;;;;;;6.50;4.75;;;;;;;;;;5064799;28;20044;-81
2021/08/05 11:41:44;;;;;;;6.32;4.13;;;;;;;;;;5063104;28;20517;-81
2021/08/05 11:44:20;;;;;;;12.77;9.73;;;;;;;;;;5063180;28;20048;-80
2021/08/05 11:47:07;;;;;;;9.45;7.13;;;;;;;;;;5062459;28;20083;-82
2021/08/05 11:49:35;;;;;;;6.20;3.47;;;;;;;;;;5061469;28;20077;-82
2021/08/05 11:52:08;;;;;;;8.50;4.60;;;;;;;;;;5062283;28;20041;-82
2021/08/05 11:54:35;;;;;;;7.80;4.20;;;;;;;;;;5061427;28;20049;-82
2021/08/05 11:57:04;;;;;;;5.88;3.33;;;;;;;;;;5061069;28;20064;-82
2021/08/05 11:59:40;;;;;;;5.95;3.63;;;;;;;;;;5061245;28;20050;-82
2021/08/05 12:02:09;;;;;;;5.38;2.85;;;;;;;;;;5061763;28;20063;-83
2021/08/05 12:04:36;;;;;;;6.13;3.28;;;;;;;;;;5061311;28;20049;-80
2021/08/05 12:07:26;;;;;;;5.68;3.05;;;;;;;;;;5061422;28;20045;-81
2021/08/05 12:09:59;;;;;;;6.30;3.00;;;;;;;;;;5060941;28;20060;-81
2021/08/05 12:12:28;;;;;;;5.78;3.05;;;;;;;;;;5060747;28;20056;-81
2021/08/05 12:14:59;;;;;;;5.25;2.50;;;;;;;;;;5061267;28;20053;-81
2021/08/05 12:17:49;;;;;;;;;;;;;;;;;;5067003;28;20044;-81
2021/08/05 12:20:17;;;;;;;;;;;;;;;;;;5050843;28;19920;-82
2021/08/05 12:22:45;;;;;;;4.43;2.67;;;;;;;;;;5065305;28;20007;-82
2021/08/05 12:25:33;;;;;;;4.03;2.22;;;;;;;;;;5063761;28;20108;-81
2021/08/05 12:28:03;;;;;;;5.28;2.53;;;;;;;;;;5064574;28;20056;-82
2021/08/05 12:30:40;;;;;;;4.68;2.28;;;;;;;;;;5064934;28;20049;-82
2021/08/05 12:33:11;;;;;;;6.45;2.95;;;;;;;;;;5063902;28;20045;-81
2021/08/05 12:35:39;;;;;;;5.07;2.88;;;;;;;;;;5064198;28;20052;-81
2021/08/05 12:38:09;;;;;;;4.70;2.40;;;;;;;;;;5065617;28;20075;-81
2021/08/05 12:40:42;;;;;;;5.13;2.83;;;;;;;;;;5064116;28;20080;-82
2021/08/05 12:43:12;;;;;;;4.53;2.60;;;;;;;;;;5062073;28;20060;-84
2021/08/05 12:45:43;;;;;;;5.20;2.85;;;;;;;;;;5061481;28;20053;-82
2021/08/05 12:48:11;;;;;;;10.45;6.63;;;;;;;;;;5061961;28;20071;-82
2021/08/05 12:50:44;;;;;;;4.95;2.40;;;;;;;;;;5062423;28;20041;-82
2021/08/05 12:53:11;;;;;;;4.97;2.45;;;;;;;;;;5063374;28;20049;-82
2021/08/05 12:55:49;;;;;;;5.97;2.50;;;;;;;;;;5063132;28;20052;-83
2021/08/05 12:58:19;;;;;;;4.10;2.00;;;;;;;;;;5061741;28;20053;-82
2021/08/05 13:00:47;;;;;;;6.27;2.90;;;;;;;;;;5061914;28;20053;-82
2021/08/05 13:03:15;;;;;;;3.35;1.90;;;;;;;;;;5061760;28;20136;-82
2021/08/05 13:06:00;;;;;;;4.95;2.10;;;;;;;;;;5062703;28;20056;-82
2021/08/05 13:08:29;;;;;;;3.83;1.63;;;;;;;;;;5063075;28;20044;-82
2021/08/05 13:10:56;;;;;;;3.40;1.85;;;;;;;;;;5062961;28;20095;-83
2021/08/05 13:13:44;;;;;;;3.60;2.03;;;;;;;;;;5062131;28;20053;-82
2021/08/05 13:16:25;;;;;;;2.63;1.50;;;;;;;;;;5061410;28;20116;-82
2021/08/05 13:19:07;;;;;;;3.55;1.80;;;;;;;;;;5061614;28;20045;-83
2021/08/05 13:21:35;;;;;;;12.07;8.77;;;;;;;;;;5067724;28;20052;-82
2021/08/05 13:24:20;;;;;;;3.53;1.90;;;;;;;;;;5079919;28;20052;-81
2021/08/05 13:26:56;;;;;;;2.80;1.80;;;;;;;;;;5071242;28;20076;-82
2021/08/05 13:29:43;;;;;;;4.28;1.80;;;;;;;;;;5063172;28;20041;-85
2021/08/05 13:32:14;;;;;;;2.92;1.80;;;;;;;;;;5060774;28;20045;-85
2021/08/05 13:34:40;;;;;;;4.03;1.83;;;;;;;;;;5060085;28;20056;-85
2021/08/05 13:37:23;;;;;;;5.60;3.20;;;;;;;;;;5059753;28;20053;-85
2021/08/05 13:39:52;;;;;;;5.28;2.05;;;;;;;;;;5058634;28;20049;-85
2021/08/05 13:42:20;;;;;;;3.53;2.05;;;;;;;;;;5059967;28;20049;-85
2021/08/05 13:44:47;;;;;;;3.72;1.90;;;;;;;;;;5059324;28;20049;-84
2021/08/05 13:47:16;;;;;;;3.83;1.90;;;;;;;;;;5059550;28;20114;-85
2021/08/05 13:49:44;;;;;;;3.80;1.50;;;;;;;;;;5059096;28;20510;-84
2021/08/05 13:52:11;;;;;;;4.75;1.70;;;;;;;;;;5059325;28;20049;-84
2021/08/05 13:54:39;;;;;;;4.35;1.73;;;;;;;;;;5061168;28;20444;-85
2021/08/05 13:57:06;;;;;;;3.63;1.85;;;;;;;;;;5063825;28;20490;-85
2021/08/05 13:59:33;;;;;;;3.42;1.75;;;;;;;;;;5060479;28;20040;-86
2021/08/05 14:02:00;;;;;;;3.65;1.70;;;;;;;;;;5060048;28;20049;-85
2021/08/05 14:04:29;;;;;;;2.80;1.50;;;;;;;;;;5058812;28;20048;-85
2021/08/05 14:06:56;;;;;;;2.30;1.20;;;;;;;;;;5072096;22;20045;-77
2021/08/05 14:09:23;;;;;;;1.73;1.00;;;;;;;;;;5053135;28;20159;-77
2021/08/05 14:11:51;;;;;;;3.15;1.40;;;;;;;;;;5053775;28;20037;-77
2021/08/05 14:14:18;;;;;;;2.55;1.20;;;;;;;;;;5053706;28;20052;-77
2021/08/05 14:16:46;;;;;;;3.30;1.52;;;;;;;;;;5052452;28;20048;-76
2021/08/05 14:19:13;;;;;;;3.55;1.42;;;;;;;;;;5053336;28;20044;-77
2021/08/05 14:21:44;;;;;;;2.90;1.50;;;;;;;;;;5053609;28;20049;-76
2021/08/05 14:24:12;;;;;;;2.15;1.27;;;;;;;;;;5053787;28;20056;-77
2021/08/05 14:26:39;;;;;;;2.70;1.30;;;;;;;;;;5052718;28;20137;-76
2021/08/05 14:29:06;;;;;;;3.00;1.10;;;;;;;;;;5053522;28;20053;-76
2021/08/05 14:31:33;;;;;;;3.05;1.10;;;;;;;;;;5053017;28;20044;-76
2021/08/05 14:34:00;;;;;;;3.47;1.20;;;;;;;;;;5054078;28;20088;-77
2021/08/05 14:36:27;;;;;;;3.40;1.90;;;;;;;;;;5052898;28;20048;-77
2021/08/05 14:38:56;;;;;;;3.78;2.10;;;;;;;;;;5053189;28;20049;-76
2021/08/05 14:41:23;;;;;;;2.92;1.50;;;;;;;;;;5053421;28;20045;-76
2021/08/05 14:43:50;;;;;;;4.07;1.30;;;;;;;;;;5055880;28;20048;-76
2021/08/05 14:46:17;;;;;;;5.10;1.42;;;;;;;;;;5057103;28;20052;-76
2021/08/05 14:48:44;;;;;;;4.05;1.75;;;;;;;;;;5057907;28;20076;-76
2021/08/05 14:51:11;;;;;;;2.97;1.60;;;;;;;;;;5056718;28;20045;-76
2021/08/05 14:53:38;;;;;;;2.95;1.30;;;;;;;;;;5053758;28;20115;-76
2021/08/05 14:56:06;;;;;;;2.90;1.67;;;;;;;;;;5052473;28;20056;-75
2021/08/05 14:58:33;;;;;;;6.28;4.38;;;;;;;;;;5052876;28;20048;-76
2021/08/05 15:01:00;;;;;;;3.45;2.00;;;;;;;;;;5053048;28;20063;-76
2021/08/05 15:03:29;;;;;;;3.63;1.98;;;;;;;;;;5053333;28;20053;-77
2021/08/05 15:05:58;;;;;;;4.35;2.25;;;;;;;;;;5052131;28;20049;-76
2021/08/05 15:08:25;;;;;;;3.53;1.83;;;;;;;;;;5052927;28;20339;-76
2021/08/05 15:10:51;;;;;;;2.50;1.38;;;;;;;;;;5052645;28;20095;-77
2021/08/05 15:13:20;;;;;;;2.42;1.20;;;;;;;;;;5052901;28;20102;-77
2021/08/05 15:15:46;;;;;;;3.08;1.42;;;;;;;;;;5052067;28;20053;-77
2021/08/05 15:18:13;;;;;;;3.90;1.40;;;;;;;;;;5056608;28;20495;-76
2021/08/05 15:20:40;;;;;;;2.92;1.40;;;;;;;;;;5059155;28;20052;-76
2021/08/05 15:23:07;;;;;;;2.63;1.38;;;;;;;;;;5052704;28;20045;-76
2021/08/05 15:25:34;;;;;;;3.65;1.38;;;;;;;;;;5051854;28;20049;-76
2021/08/05 15:28:01;;;;;;;2.88;1.40;;;;;;;;;;5052201;28;20059;-76
2021/08/05 15:30:29;;;;;;;2.63;1.27;;;;;;;;;;5052536;28;20052;-76
2021/08/05 15:32:56;;;;;;;2.58;1.30;;;;;;;;;;5052289;28;20049;-76
2021/08/05 15:35:23;;;;;;;3.20;1.42;;;;;;;;;;5051731;28;20049;-76
2021/08/05 15:37:50;;;;;;;2.28;1.27;;;;;;;;;;5052161;28;20055;-76
2021/08/05 15:40:18;;;;;;;1.98;1.30;;;;;;;;;;5052351;28;20049;-76
2021/08/05 15:42:45;;;;;;;3.45;1.85;;;;;;;;;;5052240;28;20478;-76
2021/08/05 15:45:12;;;;;;;3.53;1.95;;;;;;;;;;5051397;28;20057;-76
2021/08/05 15:47:40;;;;;;;2.50;1.30;;;;;;;;;;5052232;28;20060;-76
2021/08/05 15:50:08;;;;;;;4.90;2.30;;;;;;;;;;5051656;28;20049;-76
2021/08/05 15:52:34;;;;;;;3.03;1.50;;;;;;;;;;5051965;28;20074;-76
2021/08/05 15:55:01;;;;;;;2.75;1.40;;;;;;;;;;5051767;28;20497;-76
2021/08/05 15:57:28;;;;;;;3.60;1.48;;;;;;;;;;5051717;28;20049;-76
2021/08/05 15:59:55;;;;;;;2.55;1.30;;;;;;;;;;5051680;28;20559;-76
2021/08/05 16:02:22;;;;;;;2.25;1.25;;;;;;;;;;5051567;28;20055;-76
2021/08/05 16:04:50;;;;;;;2.55;1.23;;;;;;;;;;5051205;28;20501;-76
2021/08/05 16:07:17;;;;;;;3.58;1.42;;;;;;;;;;5051368;28;20106;-76
2021/08/05 16:09:44;;;;;;;2.80;1.33;;;;;;;;;;5052123;28;20056;-76
2021/08/05 16:12:11;;;;;;;3.05;1.60;;;;;;;;;;5051398;28;20604;-76
2021/08/05 16:14:38;;;;;;;2.40;1.40;;;;;;;;;;5051087;28;20048;-76